Hanska, MN (56041)

11:45 AM CST on February 14, 2016 (GMT -0600)
Thompson Farms | | Change Station
CLOSE
Current Station
Personal Weather Station
Location: Hanska, MN
Elevation: 988 ft
Nearby Weather Stations

Elev 988 ft 44.17 °N, 94.38 °W | Updated 12 seconds ago

Snow
Snow
18.8 °F
Feels Like 4 °F
N
17.0
Wind Variable Wind from SE
Gusts 19.0 mph

Today
High -- | Low -- °F
--% Chance of Precip.
Yesterday
High -- | Low -- °F
Precip. -- in
Pressure 29.94 in
Visibility 4.0 miles
Clouds Scattered Clouds 1400 ft
Overcast 2100 ft
Windchill 4 °F
Dew Point 17 °F
Humidity 91%
Rainfall 0.00 in
Snow Depth Not available.
7:19 AM 5:45 PM
Waxing Crescent, 43% visible
METAR KJYG 141735Z AUTO 14011G18KT 4SM -SN SCT014 OVC021 M07/M09 A2994 RMK AO2
Pressure 29.94 in
Visibility 4.0 miles
Clouds Scattered Clouds 1400 ft
Overcast 2100 ft
Windchill 4 °F
Dew Point 17 °F
Humidity 91%
Rainfall 0.00 in
Snow Depth Not available.
7:19 AM 5:45 PM
Waxing Crescent, 43% visible
METAR KJYG 141735Z AUTO 14011G18KT 4SM -SN SCT014 OVC021 M07/M09 A2994 RMK AO2

10-Day Weather Forecast

Almanac

Astronomy

Feb. 14, 2016 Rise Set
Actual Time
Civil Twilight
Nautical Twilight
Astronomical Twilight
Moon
Length of Visible Light
Length of Day
Tomorrow will be .
, % of the Moon is Illuminated

Today's Extremes

State Highs State Lows

Community

WunderPhotos

Upload Photos

1,892,860 photos uploaded!

WunderBlog® & News

Nearby

Air Quality

  Air Quality AQ Index Pollutant
Not available.

Snow Depth

Station Depth Elevation

Earthquake Activity

City Distance Mag. Time & Date
Minimum magnitude displayed is 2.5.

Coastal Water Temperatures

Place Temperature

Stations

Nearby Weather Stations

Station Location Temp. Windchill Dew Point Humidity Wind Precip. Elev Updated Type
                   

Watches & Warnings

There are currently no watches in effect.